메인 페이지
METAR-TAF:

METAR-TAF

공항 :

베오그라드, 세르비아

베오그라드 니콜라 테슬라 국제공항

위도: 44-49N, 경도: 020-17E, 고도: 96m

현재 날씨관측

예보는 26분 전, 05:30시(UTC)에 발표되었습니다.
10kt
온도 2°C
습도 75%
기압 1012 hPa
시정 10km 이상
고도 3300ft 상공 구름 많음

METAR: LYBE 200530Z 10010KT 9999 BKN033 02/M02 Q1012 TEMPO 5000 -SNRA BKN015 BKN030

시각: 06:56 (05:56 UTC)

예보

예보는 56분 전, 05:00시(UTC)에 발표되었습니다.
예보 대상 시간: 20일 06시부터 21일 06시까지 (UTC)
15kt
시정 10km 이상
고도 3300ft 상공 구름 많음
일시적
20일 06시부터 20일 08시까지 (UTC)
시정: 5000m
고도 1500ft 상공 구름 많음
고도 3000ft 상공 구름 많음
약한비, 눈
전환 중
20일 07시부터 20일 09시까지 (UTC)
25kt
일시적
20일 20시부터 21일 06시까지 (UTC)

TAF: LYBE 200500Z 2006/2106 10015KT 9999 BKN033 TX04/2012Z TN01/2006Z TEMPO 2006/2008 5000 -RASN BKN015 BKN030 BECMG 2007/2009 10025KT TEMPO 2020/2106 RA

4,000개 이상의 공항 관측 자료 및 예보 (METAR 및 TAF 보고).

지도상에서 검색 가능한 기상관측소가 노란 점과 빨간 점으로 표시되어 있습니다.

기상관측소 명을 보려면 표시 위로 마우스를 이동하세요.

날씨 관측과 예보를 보려면 클릭하세요.

지도 변경 : 확대하려면 엑스 표시가 있는 녹색 버튼, 축소하려면 빼기 표시가 있는 녹색 버튼, 다음 페이지의 지도를 보려면 녹색 화살표를 클릭하세요.


METAR-TAF: